createdAt,value
2019-03-31T00:00:17.183Z,19.13
2019-03-31T00:02:50.327Z,17.17
2019-03-31T00:05:22.144Z,20.47
2019-03-31T00:07:53.540Z,20.37
2019-03-31T00:10:25.009Z,18.27
2019-03-31T00:12:56.836Z,17.43
2019-03-31T00:15:28.611Z,16.67
2019-03-31T00:18:00.267Z,16.87
2019-03-31T00:20:32.015Z,15.87
2019-03-31T00:23:03.517Z,15.27
2019-03-31T00:25:35.595Z,17.80
2019-03-31T00:28:07.393Z,18.07
2019-03-31T00:30:39.392Z,14.47
2019-03-31T00:33:11.188Z,14.73
2019-03-31T00:35:42.700Z,25.43
2019-03-31T00:38:14.358Z,22.67
2019-03-31T00:40:45.886Z,18.83
2019-03-31T00:43:17.240Z,19.23
2019-03-31T00:45:48.687Z,17.10
2019-03-31T00:48:20.848Z,22.53
2019-03-31T00:50:52.503Z,18.80
2019-03-31T00:53:23.968Z,17.17
2019-03-31T00:55:55.487Z,17.03
2019-03-31T00:58:26.938Z,16.83
2019-03-31T01:01:15.883Z,17.87
2019-03-31T01:03:48.939Z,16.17
2019-03-31T01:06:21.283Z,15.53
2019-03-31T01:08:52.723Z,18.47
2019-03-31T01:11:25.695Z,16.07
2019-03-31T01:13:57.425Z,17.67
2019-03-31T01:16:29.600Z,18.27
2019-03-31T01:19:00.960Z,14.90
2019-03-31T01:21:32.524Z,15.67
2019-03-31T01:24:03.817Z,17.93
2019-03-31T01:26:35.151Z,19.50
2019-03-31T01:29:06.715Z,17.23
2019-03-31T01:31:49.657Z,17.77
2019-03-31T01:34:10.793Z,18.33
2019-03-31T01:36:42.367Z,13.43
2019-03-31T01:39:14.365Z,17.73
2019-03-31T01:41:46.042Z,16.43
2019-03-31T01:44:18.775Z,18.90
2019-03-31T01:46:50.876Z,12.63
2019-03-31T01:49:22.419Z,16.23
2019-03-31T01:51:53.803Z,17.00
2019-03-31T01:54:26.036Z,15.57
2019-03-31T01:56:59.215Z,17.13
2019-03-31T01:59:31.599Z,14.73
2019-03-31T02:02:04.298Z,17.10
2019-03-31T02:04:38.039Z,16.53
2019-03-31T02:07:09.803Z,18.53
2019-03-31T02:09:41.335Z,18.67
2019-03-31T02:12:13.136Z,16.63
2019-03-31T02:14:46.091Z,19.53
2019-03-31T02:17:18.839Z,15.87
2019-03-31T02:19:50.187Z,16.43
2019-03-31T02:22:21.895Z,16.87
2019-03-31T02:24:54.126Z,18.27
2019-03-31T02:27:25.588Z,17.60
2019-03-31T02:29:57.564Z,18.77
2019-03-31T02:32:29.392Z,19.17
2019-03-31T02:35:01.104Z,17.43
2019-03-31T02:37:32.514Z,15.10
2019-03-31T02:40:04.976Z,18.57
2019-03-31T02:42:37.313Z,17.63
2019-03-31T02:45:08.987Z,13.40
2019-03-31T02:47:40.173Z,16.33
2019-03-31T02:50:14.387Z,14.07
2019-03-31T02:52:45.807Z,15.90
2019-03-31T02:55:17.600Z,16.50
2019-03-31T02:57:48.748Z,16.73
2019-03-31T03:00:20.461Z,13.83
2019-03-31T03:02:52.751Z,15.47
2019-03-31T03:05:25.408Z,16.23
2019-03-31T03:07:56.677Z,18.97
2019-03-31T03:10:28.516Z,15.53
2019-03-31T03:13:00.569Z,15.87
2019-03-31T03:15:34.675Z,16.20
2019-03-31T03:18:06.245Z,14.53
2019-03-31T03:20:37.946Z,18.20
2019-03-31T03:23:09.706Z,14.07
2019-03-31T03:25:55.203Z,12.77
2019-03-31T03:28:13.915Z,14.07
2019-03-31T03:30:45.407Z,15.37
2019-03-31T03:33:18.535Z,19.27
2019-03-31T03:35:50.982Z,18.13
2019-03-31T03:38:22.376Z,15.67
2019-03-31T03:40:54.164Z,16.97
2019-03-31T03:43:25.917Z,16.67
2019-03-31T03:45:57.320Z,15.60
2019-03-31T03:48:28.901Z,19.57
2019-03-31T03:51:01.288Z,16.37
2019-03-31T03:53:34.267Z,18.00
2019-03-31T03:56:06.000Z,16.43
2019-03-31T03:58:37.703Z,16.23
2019-03-31T04:01:17.769Z,17.10
2019-03-31T04:03:49.165Z,15.77
2019-03-31T04:06:20.650Z,18.23
2019-03-31T04:08:52.024Z,17.77
2019-03-31T04:11:27.508Z,14.70
2019-03-31T04:13:58.875Z,18.47
2019-03-31T04:16:30.075Z,18.23
2019-03-31T04:19:01.513Z,17.63
2019-03-31T04:21:32.846Z,18.20
2019-03-31T04:24:04.223Z,16.23
2019-03-31T04:26:35.675Z,16.83
2019-03-31T04:29:07.041Z,13.80
2019-03-31T04:31:38.345Z,14.77
2019-03-31T04:34:09.977Z,16.87
2019-03-31T04:36:42.767Z,16.60
2019-03-31T04:39:13.927Z,14.27
2019-03-31T04:41:45.595Z,16.80
2019-03-31T04:44:16.964Z,17.63
2019-03-31T04:46:48.496Z,16.60
2019-03-31T04:49:20.236Z,16.40
2019-03-31T04:51:51.700Z,18.00
2019-03-31T04:54:23.960Z,16.67
2019-03-31T04:56:55.555Z,17.57
2019-03-31T04:59:27.220Z,16.67
2019-03-31T05:01:58.896Z,19.73
2019-03-31T05:04:30.400Z,18.00
2019-03-31T05:07:01.952Z,18.57
2019-03-31T05:09:33.328Z,24.87
2019-03-31T05:12:04.619Z,21.63
2019-03-31T05:14:37.158Z,23.67
2019-03-31T05:17:08.335Z,24.30
2019-03-31T05:19:39.744Z,25.30
2019-03-31T05:22:11.294Z,27.07
2019-03-31T05:24:42.936Z,29.17
2019-03-31T05:27:14.505Z,22.87
2019-03-31T05:29:45.947Z,23.67
2019-03-31T05:32:17.713Z,26.37
2019-03-31T05:34:49.464Z,24.70
2019-03-31T05:37:21.799Z,21.93
2019-03-31T05:39:53.187Z,20.07
2019-03-31T05:42:24.719Z,20.00
2019-03-31T05:44:56.463Z,18.87
2019-03-31T05:47:27.913Z,19.77
2019-03-31T05:49:59.367Z,20.87
2019-03-31T05:52:31.112Z,19.30
2019-03-31T05:55:02.576Z,18.30
2019-03-31T05:57:34.075Z,18.77
2019-03-31T06:00:05.780Z,18.80
2019-03-31T06:02:37.563Z,18.43
2019-03-31T06:05:09.320Z,19.57
2019-03-31T06:07:40.687Z,19.60
2019-03-31T06:10:12.544Z,19.37
2019-03-31T06:12:44.567Z,21.50
2019-03-31T06:15:16.444Z,22.83
2019-03-31T06:17:48.176Z,23.13
2019-03-31T06:20:19.916Z,20.20
2019-03-31T06:22:51.292Z,18.93
2019-03-31T06:25:22.747Z,19.43
2019-03-31T06:27:54.426Z,17.40
2019-03-31T06:30:26.272Z,16.37
2019-03-31T06:32:57.836Z,18.57
2019-03-31T06:35:29.543Z,18.60
2019-03-31T06:38:01.290Z,16.30
2019-03-31T06:40:32.685Z,16.90
2019-03-31T06:43:04.225Z,17.80
2019-03-31T06:45:35.892Z,16.27
2019-03-31T06:48:07.447Z,16.90
2019-03-31T06:50:38.759Z,16.03
2019-03-31T06:53:27.488Z,15.57
2019-03-31T06:55:59.186Z,15.37
2019-03-31T06:58:31.379Z,15.73
2019-03-31T07:01:02.928Z,17.03
2019-03-31T07:03:34.604Z,17.90
2019-03-31T07:06:05.899Z,16.40
2019-03-31T07:08:37.479Z,15.07
2019-03-31T07:11:09.137Z,14.77
2019-03-31T07:13:40.632Z,15.77
2019-03-31T07:16:12.399Z,16.23
2019-03-31T07:18:44.191Z,16.07
2019-03-31T07:21:15.679Z,15.47
2019-03-31T07:23:47.420Z,15.50
2019-03-31T07:26:19.095Z,15.90
2019-03-31T07:28:50.511Z,15.80
2019-03-31T07:31:22.352Z,13.83
2019-03-31T07:33:54.351Z,15.23
2019-03-31T07:36:25.815Z,16.50
2019-03-31T07:38:57.470Z,15.87
2019-03-31T07:41:29.078Z,15.23
2019-03-31T07:44:00.795Z,15.90
2019-03-31T07:46:32.539Z,15.23
2019-03-31T07:49:03.979Z,16.03
2019-03-31T07:51:37.502Z,15.93
2019-03-31T07:54:09.092Z,15.30
2019-03-31T07:56:41.121Z,15.57
2019-03-31T07:59:12.547Z,15.87
2019-03-31T08:01:44.328Z,15.50
2019-03-31T08:04:15.861Z,14.93
2019-03-31T08:06:47.228Z,14.53
2019-03-31T08:09:19.096Z,15.73
2019-03-31T08:11:50.700Z,13.87
2019-03-31T08:14:22.522Z,14.53
2019-03-31T08:16:54.264Z,16.07
2019-03-31T08:19:26.113Z,14.73
2019-03-31T08:21:57.799Z,13.27
2019-03-31T08:24:30.856Z,15.35
2019-03-31T08:27:05.571Z,15.83
2019-03-31T08:29:36.072Z,15.43
2019-03-31T08:32:07.564Z,16.05
2019-03-31T08:34:38.760Z,16.07
2019-03-31T08:37:10.515Z,14.45
2019-03-31T08:39:41.952Z,15.70
2019-03-31T08:42:13.415Z,13.93
2019-03-31T08:44:45.224Z,15.13
2019-03-31T08:47:17.075Z,14.78
2019-03-31T08:49:48.603Z,15.65
2019-03-31T08:52:20.179Z,15.25
2019-03-31T08:54:52.144Z,14.58
2019-03-31T08:57:23.711Z,13.15
2019-03-31T08:59:56.159Z,13.08
2019-03-31T09:02:30.888Z,11.88
2019-03-31T09:05:02.424Z,11.12
2019-03-31T09:07:33.731Z,11.75
2019-03-31T09:10:05.839Z,10.53
2019-03-31T09:12:37.764Z,10.45
2019-03-31T09:15:10.406Z,10.18
2019-03-31T09:17:41.748Z,10.63
2019-03-31T09:20:15.347Z,9.00
2019-03-31T09:22:46.879Z,9.30
2019-03-31T09:25:18.549Z,9.70
2019-03-31T09:27:49.997Z,9.55
2019-03-31T09:30:21.748Z,9.25
2019-03-31T09:32:53.476Z,8.45
2019-03-31T09:35:25.980Z,9.30
2019-03-31T09:37:57.645Z,8.40
2019-03-31T09:40:29.204Z,9.28
2019-03-31T09:43:00.603Z,9.63
2019-03-31T09:45:31.963Z,9.65
2019-03-31T09:48:03.817Z,8.38
2019-03-31T09:50:35.458Z,9.55
2019-03-31T09:53:07.659Z,8.30
2019-03-31T09:55:39.313Z,9.05
2019-03-31T09:58:10.764Z,10.05
2019-03-31T10:00:47.062Z,9.25
2019-03-31T10:03:18.761Z,9.25
2019-03-31T10:05:50.332Z,9.40
2019-03-31T10:08:22.461Z,9.45
2019-03-31T10:10:55.183Z,8.98
2019-03-31T10:13:26.518Z,8.83
2019-03-31T10:15:59.002Z,9.40
2019-03-31T10:18:30.697Z,8.45
2019-03-31T10:21:04.003Z,9.38
2019-03-31T10:23:35.745Z,9.73
2019-03-31T10:26:07.201Z,10.65
2019-03-31T10:28:38.927Z,8.50
2019-03-31T10:31:10.792Z,8.93
2019-03-31T10:33:42.188Z,10.00
2019-03-31T10:36:13.603Z,9.55
2019-03-31T10:38:45.105Z,10.80
2019-03-31T10:41:16.807Z,9.60
2019-03-31T10:43:48.317Z,9.78
2019-03-31T10:46:20.036Z,9.00
2019-03-31T10:48:52.719Z,9.58
2019-03-31T10:51:24.406Z,10.75
2019-03-31T10:53:55.967Z,10.18
2019-03-31T10:56:28.355Z,9.78
2019-03-31T10:58:59.799Z,9.85
2019-03-31T11:01:31.530Z,8.93
2019-03-31T11:04:02.928Z,9.85
2019-03-31T11:06:34.727Z,9.75
2019-03-31T11:09:07.167Z,9.40
2019-03-31T11:11:38.559Z,8.25
2019-03-31T11:14:11.511Z,10.13
2019-03-31T11:16:43.005Z,9.33
2019-03-31T11:19:14.819Z,9.15
2019-03-31T11:22:00.903Z,8.28
2019-03-31T11:24:32.711Z,8.85
2019-03-31T11:27:05.159Z,8.53
2019-03-31T11:29:37.424Z,9.43
2019-03-31T11:32:09.685Z,9.58
2019-03-31T11:34:40.987Z,9.35
2019-03-31T11:37:13.930Z,9.98
2019-03-31T11:39:46.250Z,9.33
2019-03-31T11:42:17.723Z,8.68
2019-03-31T11:44:48.915Z,9.48
2019-03-31T11:47:22.407Z,9.98
2019-03-31T11:49:53.943Z,8.53
2019-03-31T11:52:25.819Z,9.70
2019-03-31T11:54:57.801Z,8.63
2019-03-31T11:57:29.513Z,9.03
2019-03-31T12:00:00.944Z,8.10
2019-03-31T12:02:33.055Z,8.20
2019-03-31T12:05:06.204Z,8.10
2019-03-31T12:07:46.617Z,8.65
2019-03-31T12:10:12.031Z,9.00
2019-03-31T12:12:43.859Z,8.10
2019-03-31T12:15:15.255Z,8.70
2019-03-31T12:17:46.799Z,8.88
2019-03-31T12:20:18.127Z,8.95
2019-03-31T12:22:49.588Z,8.55
2019-03-31T12:25:21.067Z,8.68
2019-03-31T12:27:52.537Z,8.30
2019-03-31T12:30:30.101Z,7.70
2019-03-31T12:33:01.675Z,8.48
2019-03-31T12:35:32.979Z,8.75
2019-03-31T12:38:04.498Z,8.68
2019-03-31T12:40:36.764Z,9.23
2019-03-31T12:43:08.367Z,8.63
2019-03-31T12:45:43.090Z,8.68
2019-03-31T12:48:13.673Z,7.92
2019-03-31T12:50:45.800Z,8.73
2019-03-31T12:53:17.463Z,9.05
2019-03-31T12:55:59.502Z,8.33
2019-03-31T12:58:22.258Z,8.18
2019-03-31T13:00:53.986Z,8.63
2019-03-31T13:03:26.572Z,9.33
2019-03-31T13:05:58.107Z,9.20
2019-03-31T13:08:29.647Z,9.28
2019-03-31T13:11:01.539Z,9.95
2019-03-31T13:13:33.055Z,10.63
2019-03-31T13:16:04.943Z,10.28
2019-03-31T13:18:37.170Z,9.65
2019-03-31T13:21:09.023Z,9.83
2019-03-31T13:23:40.667Z,9.60
2019-03-31T13:26:12.307Z,9.63
2019-03-31T13:28:43.951Z,9.03
2019-03-31T13:31:15.659Z,8.73
2019-03-31T13:33:47.475Z,9.20
2019-03-31T13:36:19.270Z,8.40
2019-03-31T13:38:51.056Z,8.65
2019-03-31T13:41:22.387Z,8.45
2019-03-31T13:43:54.139Z,8.10
2019-03-31T13:46:25.999Z,7.65
2019-03-31T13:48:57.335Z,7.70
2019-03-31T13:51:28.815Z,7.50
2019-03-31T13:54:00.683Z,8.45
2019-03-31T13:56:32.508Z,7.50
2019-03-31T13:59:08.904Z,7.70
2019-03-31T14:01:38.592Z,8.38
2019-03-31T14:04:11.047Z,8.53
2019-03-31T14:06:42.444Z,8.53
2019-03-31T14:09:14.187Z,8.55
2019-03-31T14:11:48.444Z,10.23
2019-03-31T14:14:19.884Z,9.75
2019-03-31T14:16:51.332Z,8.98
2019-03-31T14:19:23.108Z,8.73
2019-03-31T14:21:54.504Z,9.45
2019-03-31T14:24:27.029Z,9.85
2019-03-31T14:26:58.655Z,8.65
2019-03-31T14:29:30.439Z,9.05
2019-03-31T14:32:01.868Z,9.28
2019-03-31T14:34:33.620Z,9.60
2019-03-31T14:37:05.400Z,9.30
2019-03-31T14:39:37.080Z,8.28
2019-03-31T14:42:08.900Z,7.97
2019-03-31T14:44:40.446Z,8.90
2019-03-31T14:47:12.404Z,8.55
2019-03-31T14:49:43.837Z,9.85
2019-03-31T14:52:26.665Z,8.28
2019-03-31T14:54:48.845Z,9.58
2019-03-31T14:57:20.663Z,9.00
2019-03-31T14:59:52.204Z,8.67
2019-03-31T15:02:23.888Z,8.27
2019-03-31T15:04:55.309Z,9.83
2019-03-31T15:07:26.801Z,8.07
2019-03-31T15:09:58.772Z,9.00
2019-03-31T15:12:31.888Z,9.30
2019-03-31T15:15:03.578Z,9.87
2019-03-31T15:17:35.040Z,9.67
2019-03-31T15:20:07.752Z,9.60
2019-03-31T15:22:39.176Z,8.63
2019-03-31T15:25:10.656Z,9.93
2019-03-31T15:27:42.067Z,10.27
2019-03-31T15:30:14.759Z,10.50
2019-03-31T15:32:46.564Z,9.77
2019-03-31T15:35:17.680Z,9.33
2019-03-31T15:37:48.795Z,8.63
2019-03-31T15:40:19.916Z,9.27
2019-03-31T15:42:51.752Z,8.27
2019-03-31T15:45:23.242Z,8.93
2019-03-31T15:47:54.958Z,9.27
2019-03-31T15:50:26.603Z,9.27
2019-03-31T15:52:57.876Z,9.43
2019-03-31T15:55:29.541Z,9.00
2019-03-31T15:58:00.775Z,9.97
2019-03-31T16:00:32.471Z,8.47
2019-03-31T16:03:04.187Z,9.23
2019-03-31T16:05:35.645Z,9.57
2019-03-31T16:08:06.660Z,8.70
2019-03-31T16:10:38.043Z,8.23
2019-03-31T16:13:08.924Z,7.93
2019-03-31T16:15:40.003Z,7.90
2019-03-31T16:18:11.447Z,8.20
2019-03-31T16:20:42.288Z,7.87
2019-03-31T16:23:13.812Z,8.70
2019-03-31T16:25:49.391Z,6.70
2019-03-31T16:28:20.097Z,8.17
2019-03-31T16:30:51.211Z,8.20
2019-03-31T16:33:22.587Z,7.90
2019-03-31T16:35:54.251Z,6.50
2019-03-31T16:38:25.967Z,7.90
2019-03-31T16:40:57.304Z,6.63
2019-03-31T16:43:28.684Z,7.00
2019-03-31T16:45:59.287Z,7.63
2019-03-31T16:48:30.687Z,7.27
2019-03-31T16:51:01.859Z,7.90
2019-03-31T16:53:32.746Z,7.73
2019-03-31T16:56:03.564Z,6.73
2019-03-31T16:58:34.408Z,7.33
2019-03-31T17:01:05.440Z,6.57
2019-03-31T17:03:36.698Z,6.67
2019-03-31T17:06:07.628Z,6.50
2019-03-31T17:08:38.403Z,6.07
2019-03-31T17:11:09.855Z,6.47
2019-03-31T17:13:41.555Z,5.80
2019-03-31T17:16:15.377Z,6.80
2019-03-31T17:18:45.694Z,7.03
2019-03-31T17:21:16.599Z,6.57
2019-03-31T17:23:47.965Z,6.50
2019-03-31T17:26:21.308Z,5.73
2019-03-31T17:28:52.444Z,6.60
2019-03-31T17:31:24.112Z,5.20
2019-03-31T17:33:55.980Z,5.00
2019-03-31T17:36:26.780Z,5.00
2019-03-31T17:38:58.288Z,4.97
2019-03-31T17:41:29.108Z,4.80
2019-03-31T17:43:59.939Z,5.73
2019-03-31T17:46:30.833Z,4.90
2019-03-31T17:49:01.599Z,5.00
2019-03-31T17:51:32.492Z,5.90
2019-03-31T17:54:06.173Z,5.50
2019-03-31T17:56:36.080Z,5.43
2019-03-31T17:59:08.849Z,5.23
2019-03-31T18:01:39.831Z,5.40
2019-03-31T18:04:10.632Z,5.47
2019-03-31T18:06:41.428Z,6.53
2019-03-31T18:09:12.380Z,6.30
2019-03-31T18:11:43.612Z,6.33
2019-03-31T18:14:15.524Z,6.70
2019-03-31T18:16:46.873Z,6.97
2019-03-31T18:19:18.540Z,6.57
2019-03-31T18:21:49.864Z,5.80
2019-03-31T18:24:21.824Z,8.03
2019-03-31T18:26:53.343Z,7.90
2019-03-31T18:29:24.244Z,7.97
2019-03-31T18:31:55.000Z,8.03
2019-03-31T18:34:26.295Z,7.40
2019-03-31T18:36:57.607Z,7.60
2019-03-31T18:39:28.455Z,8.13
2019-03-31T18:41:59.937Z,8.27
2019-03-31T18:44:31.040Z,8.77
2019-03-31T18:47:02.412Z,8.63
2019-03-31T18:49:33.444Z,9.90
2019-03-31T18:52:04.455Z,8.57
2019-03-31T18:54:53.135Z,8.63
2019-03-31T18:57:51.924Z,8.60
2019-03-31T19:00:54.100Z,9.30
2019-03-31T19:03:47.060Z,8.90
2019-03-31T19:06:28.027Z,9.43
2019-03-31T19:09:11.155Z,10.10
2019-03-31T19:12:07.152Z,10.07
2019-03-31T19:14:54.393Z,9.63
2019-03-31T19:17:44.537Z,8.53
2019-03-31T19:20:25.539Z,9.63
2019-03-31T19:23:09.280Z,9.60
2019-03-31T19:25:57.899Z,9.50
2019-03-31T19:28:46.516Z,9.37
2019-03-31T19:31:33.445Z,9.23
2019-03-31T19:34:14.314Z,8.63
2019-03-31T19:37:13.424Z,9.30
2019-03-31T19:40:03.284Z,9.13
2019-03-31T19:42:56.051Z,8.67
2019-03-31T19:45:52.579Z,9.07
2019-03-31T19:48:45.392Z,8.47
2019-03-31T19:51:25.484Z,8.07
2019-03-31T19:54:05.614Z,8.13
2019-03-31T19:56:54.907Z,37.13
2019-03-31T19:59:57.084Z,27.10
2019-03-31T20:03:05.703Z,21.53
2019-03-31T20:05:50.439Z,15.67
2019-03-31T20:08:43.092Z,11.63
2019-03-31T20:11:48.564Z,8.87
2019-03-31T20:14:51.042Z,7.87
2019-03-31T20:17:53.136Z,7.63
2019-03-31T20:20:45.252Z,8.07
2019-03-31T20:23:28.061Z,6.77
2019-03-31T20:26:21.415Z,7.17
2019-03-31T20:29:11.520Z,7.10
2019-03-31T20:32:07.620Z,5.97
2019-03-31T20:34:47.283Z,5.30
2019-03-31T20:37:40.440Z,7.13
2019-03-31T20:40:33.820Z,7.03
2019-03-31T20:43:22.452Z,6.10
2019-03-31T20:45:53.452Z,6.67
2019-03-31T20:48:24.513Z,6.57
2019-03-31T20:50:55.603Z,6.40
2019-03-31T20:53:27.095Z,6.70
2019-03-31T20:55:58.167Z,6.03
2019-03-31T20:58:29.779Z,7.10
2019-03-31T21:01:01.128Z,7.93
2019-03-31T21:03:32.307Z,7.23
2019-03-31T21:06:03.651Z,7.17
2019-03-31T21:08:35.789Z,7.80
2019-03-31T21:11:09.743Z,8.33
2019-03-31T21:13:40.894Z,7.87
2019-03-31T21:16:11.763Z,7.17
2019-03-31T21:18:42.819Z,6.40
2019-03-31T21:21:15.111Z,7.70
2019-03-31T21:23:46.565Z,6.90
2019-03-31T21:26:17.743Z,7.30
2019-03-31T21:28:48.623Z,7.83
2019-03-31T21:31:19.458Z,6.33
2019-03-31T21:33:50.540Z,5.93
2019-03-31T21:36:22.055Z,6.57
2019-03-31T21:38:53.131Z,6.60
2019-03-31T21:41:24.239Z,6.80
2019-03-31T21:43:55.735Z,7.87
2019-03-31T21:46:26.899Z,7.50
2019-03-31T21:48:58.384Z,8.57
2019-03-31T21:51:29.571Z,7.73
2019-03-31T21:54:00.979Z,8.27
2019-03-31T21:56:32.983Z,7.37
2019-03-31T21:59:03.863Z,7.43
2019-03-31T22:01:35.291Z,8.17
2019-03-31T22:04:06.171Z,7.33
2019-03-31T22:06:37.039Z,8.23
2019-03-31T22:09:11.242Z,8.47
2019-03-31T22:11:42.645Z,7.87
2019-03-31T22:14:13.479Z,8.17
2019-03-31T22:16:44.295Z,8.27
2019-03-31T22:19:15.163Z,7.20
2019-03-31T22:21:46.687Z,7.70
2019-03-31T22:24:17.331Z,9.03
2019-03-31T22:26:48.353Z,8.60
2019-03-31T22:29:19.477Z,7.73
2019-03-31T22:31:50.291Z,8.10
2019-03-31T22:34:21.471Z,8.07
2019-03-31T22:36:52.229Z,6.83
2019-03-31T22:39:22.811Z,8.03
2019-03-31T22:41:54.275Z,7.80
2019-03-31T22:44:25.583Z,6.30
2019-03-31T22:46:56.769Z,8.73
2019-03-31T22:49:28.359Z,8.50
2019-03-31T22:51:59.779Z,7.53
2019-03-31T22:54:30.579Z,7.50
2019-03-31T22:57:01.379Z,7.27
2019-03-31T22:59:32.216Z,8.63
2019-03-31T23:02:03.387Z,7.30
2019-03-31T23:04:34.263Z,8.37
2019-03-31T23:07:05.591Z,7.73
2019-03-31T23:09:37.804Z,8.03
2019-03-31T23:12:08.855Z,7.57
2019-03-31T23:14:40.057Z,9.00
2019-03-31T23:17:10.591Z,9.43
2019-03-31T23:19:42.055Z,7.77
2019-03-31T23:22:13.407Z,8.67
2019-03-31T23:24:44.287Z,9.07
2019-03-31T23:27:15.115Z,9.07
2019-03-31T23:29:46.228Z,10.13
2019-03-31T23:32:17.775Z,8.90
2019-03-31T23:34:49.195Z,8.73
2019-03-31T23:37:19.967Z,10.00
2019-03-31T23:39:51.186Z,9.40
2019-03-31T23:42:23.579Z,10.47
2019-03-31T23:44:54.324Z,10.60
2019-03-31T23:47:25.467Z,11.07
2019-03-31T23:49:56.371Z,10.50
2019-03-31T23:52:31.221Z,10.87
2019-03-31T23:55:02.668Z,10.83
2019-03-31T23:57:39.916Z,10.20
